Time;durP1;ratioP1;P1;durP2;ratioP2;P2;SDS_P1;SDS_P2;PMS_P1;PMS_P2;Temp;Humidity;BMP_temperature;BMP_pressure;BME280_temperature;BME280_humidity;BME280_pressure;Samples;Min_cycle;Max_cycle;Signal;HPM_P1;HPM_P2
2022/08/14 00:00:46;;;;;;;0.30;0.30;;;;;;;;;;7389927;19;20483;-70
2022/08/14 00:03:30;;;;;;;0.30;0.30;;;;;;;;;;7388205;19;20176;-70
2022/08/14 00:05:57;;;;;;;0.30;0.30;;;;;;;;;;7388802;19;20129;-70
2022/08/14 00:08:22;;;;;;;0.30;0.30;;;;;;;;;;7384519;19;20121;-70
2022/08/14 00:10:48;;;;;;;0.30;0.30;;;;;;;;;;7385040;19;20128;-70
2022/08/14 00:13:15;;;;;;;0.30;0.30;;;;;;;;;;7383435;19;20153;-70
2022/08/14 00:15:43;;;;;;;0.30;0.30;;;;;;;;;;7382804;19;20141;-70
2022/08/14 00:18:10;;;;;;;0.40;0.40;;;;;;;;;;7380056;19;20129;-70
2022/08/14 00:20:39;;;;;;;0.30;0.30;;;;;;;;;;7384352;19;20155;-70
2022/08/14 00:23:05;;;;;;;0.30;0.30;;;;;;;;;;7381436;19;20145;-70
2022/08/14 00:25:30;;;;;;;0.30;0.30;;;;;;;;;;7382801;19;20132;-70
2022/08/14 00:27:56;;;;;;;0.50;0.50;;;;;;;;;;7381572;19;20114;-70
2022/08/14 00:30:22;;;;;;;0.30;0.30;;;;;;;;;;7380952;19;20128;-70
2022/08/14 00:32:47;;;;;;;0.30;0.30;;;;;;;;;;7383676;19;20469;-70
2022/08/14 00:35:13;;;;;;;0.30;0.30;;;;;;;;;;7379121;19;20144;-70
2022/08/14 00:37:40;;;;;;;0.30;0.30;;;;;;;;;;7376441;19;20127;-70
2022/08/14 00:40:07;;;;;;;0.30;0.30;;;;;;;;;;7382357;19;20168;-70
2022/08/14 04:43:47;;;;;;;0.33;0.33;;;;;;;;;;7388635;19;20635;-71
2022/08/14 04:46:15;;;;;;;0.40;0.40;;;;;;;;;;7389938;19;20126;-70
2022/08/14 04:48:40;;;;;;;0.20;0.20;;;;;;;;;;7391655;19;20191;-70
2022/08/14 04:51:08;;;;;;;0.40;0.40;;;;;;;;;;7393380;19;20626;-70
2022/08/14 04:53:36;;;;;;;0.40;0.40;;;;;;;;;;7388583;19;20149;-70
2022/08/14 04:56:03;;;;;;;0.50;0.50;;;;;;;;;;7390625;19;20559;-70
2022/08/14 04:58:31;;;;;;;0.30;0.30;;;;;;;;;;7389174;19;20145;-70
2022/08/14 05:00:57;;;;;;;0.40;0.40;;;;;;;;;;7383487;19;20594;-70
2022/08/14 05:03:28;;;;;;;0.30;0.30;;;;;;;;;;7384723;19;20163;-69
2022/08/14 05:05:57;;;;;;;0.40;0.40;;;;;;;;;;7389315;19;20137;-70
2022/08/14 05:08:22;;;;;;;0.30;0.30;;;;;;;;;;7389972;19;20148;-70
2022/08/14 05:10:51;;;;;;;0.30;0.30;;;;;;;;;;7391225;19;20133;-71
2022/08/14 05:13:17;;;;;;;0.40;0.40;;;;;;;;;;7389157;19;20164;-70
2022/08/14 05:15:43;;;;;;;0.30;0.30;;;;;;;;;;7390060;19;20531;-71
2022/08/14 05:18:15;;;;;;;0.40;0.40;;;;;;;;;;7388920;19;20121;-70
2022/08/14 05:20:45;;;;;;;0.30;0.30;;;;;;;;;;7387692;19;20117;-70
2022/08/14 05:23:13;;;;;;;0.50;0.50;;;;;;;;;;7374337;19;20148;-70
2022/08/14 05:25:39;;;;;;;0.40;0.40;;;;;;;;;;7388198;19;20141;-70
2022/08/14 05:28:17;;;;;;;0.40;0.40;;;;;;;;;;7387366;19;20118;-70
2022/08/14 05:30:45;;;;;;;0.30;0.30;;;;;;;;;;7388040;19;20140;-70
2022/08/14 05:33:11;;;;;;;0.30;0.30;;;;;;;;;;7383999;19;20145;-70
2022/08/14 05:35:36;;;;;;;0.30;0.30;;;;;;;;;;7378789;19;20141;-71
2022/08/14 05:38:07;;;;;;;0.60;0.50;;;;;;;;;;7384320;19;20129;-70
2022/08/14 05:40:33;;;;;;;0.30;0.30;;;;;;;;;;7386432;19;20161;-70
2022/08/14 05:42:59;;;;;;;0.30;0.30;;;;;;;;;;7385080;19;20153;-71
2022/08/14 05:45:24;;;;;;;0.30;0.30;;;;;;;;;;7384151;19;20160;-70
2022/08/14 05:47:49;;;;;;;0.30;0.30;;;;;;;;;;7390084;19;20134;-70
2022/08/14 05:50:14;;;;;;;0.30;0.30;;;;;;;;;;7388873;19;20129;-71
2022/08/14 05:52:40;;;;;;;0.23;0.23;;;;;;;;;;7390204;19;20159;-70
2022/08/14 05:55:09;;;;;;;0.30;0.30;;;;;;;;;;7389692;19;20587;-71
2022/08/14 05:57:55;;;;;;;0.40;0.40;;;;;;;;;;7388013;19;20610;-70
2022/08/14 06:00:26;;;;;;;0.40;0.40;;;;;;;;;;7383261;19;20583;-69
2022/08/14 06:02:52;;;;;;;0.30;0.30;;;;;;;;;;7387888;19;20163;-69
2022/08/14 06:05:17;;;;;;;0.30;0.30;;;;;;;;;;7390024;19;20132;-69
2022/08/14 06:07:43;;;;;;;0.30;0.30;;;;;;;;;;7388909;19;20598;-69
2022/08/14 06:10:09;;;;;;;0.30;0.30;;;;;;;;;;7389125;19;20149;-70
2022/08/14 06:12:35;;;;;;;0.30;0.30;;;;;;;;;;7388012;19;20184;-70
2022/08/14 06:15:00;;;;;;;0.30;0.30;;;;;;;;;;7386188;19;20117;-69
2022/08/14 06:17:26;;;;;;;0.30;0.30;;;;;;;;;;7386660;19;20129;-70
2022/08/14 06:19:51;;;;;;;0.30;0.30;;;;;;;;;;7385212;19;20212;-70
2022/08/14 06:22:17;;;;;;;0.30;0.30;;;;;;;;;;7385213;19;20149;-69
2022/08/14 06:24:42;;;;;;;0.30;0.30;;;;;;;;;;7385549;19;20117;-69
2022/08/14 06:27:08;;;;;;;0.30;0.30;;;;;;;;;;7385002;19;20125;-70
2022/08/14 06:29:33;;;;;;;0.50;0.50;;;;;;;;;;7387762;19;20582;-69
2022/08/14 06:31:59;;;;;;;0.30;0.30;;;;;;;;;;7386822;19;20931;-69
2022/08/14 06:34:24;;;;;;;0.30;0.30;;;;;;;;;;7386853;19;20144;-70
2022/08/14 06:36:49;;;;;;;0.30;0.30;;;;;;;;;;7374275;19;20140;-69
2022/08/14 06:39:15;;;;;;;0.30;0.30;;;;;;;;;;7387524;19;20583;-70
2022/08/14 06:41:41;;;;;;;1.63;1.07;;;;;;;;;;7384492;19;20124;-70
2022/08/14 06:44:09;;;;;;;0.30;0.30;;;;;;;;;;7387240;19;20162;-70
2022/08/14 06:46:34;;;;;;;0.30;0.30;;;;;;;;;;7386536;19;20133;-70
2022/08/14 06:48:59;;;;;;;0.33;0.33;;;;;;;;;;7390466;19;20149;-70
2022/08/14 06:51:25;;;;;;;2.30;1.10;;;;;;;;;;7388274;19;20117;-70
2022/08/14 06:53:50;;;;;;;0.50;0.50;;;;;;;;;;7388378;19;20117;-70
2022/08/14 06:56:15;;;;;;;0.30;0.30;;;;;;;;;;7386383;19;20515;-70
2022/08/14 06:58:41;;;;;;;0.30;0.30;;;;;;;;;;7387173;19;20146;-70
2022/08/14 07:06:33;;;;;;;0.40;0.40;;;;;;;;;;7389774;19;20483;-70
2022/08/14 07:08:59;;;;;;;0.30;0.30;;;;;;;;;;7395213;19;20188;-70
2022/08/14 07:11:24;;;;;;;0.40;0.40;;;;;;;;;;7394596;19;20603;-70
2022/08/14 07:13:50;;;;;;;0.30;0.30;;;;;;;;;;7393914;19;20610;-70
2022/08/14 07:16:15;;;;;;;0.52;0.52;;;;;;;;;;7394790;19;20117;-70
2022/08/14 07:18:40;;;;;;;0.30;0.30;;;;;;;;;;7394434;19;20603;-70
2022/08/14 07:21:06;;;;;;;0.40;0.40;;;;;;;;;;7396256;19;20123;-70
2022/08/14 07:23:32;;;;;;;0.32;0.32;;;;;;;;;;7392164;19;20769;-70
2022/08/14 07:25:59;;;;;;;0.40;0.40;;;;;;;;;;7391925;19;20121;-70
2022/08/14 07:28:33;;;;;;;0.30;0.30;;;;;;;;;;7392881;19;20136;-70
2022/08/14 07:31:01;;;;;;;0.40;0.40;;;;;;;;;;7390640;19;20547;-70
2022/08/14 07:33:29;;;;;;;0.70;0.70;;;;;;;;;;7391795;19;20637;-70
2022/08/14 07:35:56;;;;;;;0.63;0.63;;;;;;;;;;7394209;19;20582;-70
2022/08/14 07:38:22;;;;;;;0.30;0.30;;;;;;;;;;7389677;19;20468;-70
2022/08/14 07:40:49;;;;;;;0.47;0.47;;;;;;;;;;7392583;19;20125;-70
2022/08/14 07:43:15;;;;;;;0.57;0.57;;;;;;;;;;7389823;19;20149;-70
2022/08/14 07:45:41;;;;;;;0.30;0.30;;;;;;;;;;7392578;19;20117;-70
2022/08/14 07:48:06;;;;;;;0.50;0.50;;;;;;;;;;7392822;19;20144;-70
2022/08/14 07:50:32;;;;;;;0.45;0.45;;;;;;;;;;7392806;19;20200;-70
2022/08/14 07:52:58;;;;;;;0.30;0.30;;;;;;;;;;7390588;19;20650;-70
2022/08/14 07:55:24;;;;;;;0.50;0.50;;;;;;;;;;7391950;19;20121;-70
2022/08/14 07:57:50;;;;;;;0.30;0.30;;;;;;;;;;7390228;19;20152;-70
2022/08/14 08:00:18;;;;;;;0.30;0.30;;;;;;;;;;7391591;19;20200;-70
2022/08/14 08:02:46;;;;;;;0.55;0.55;;;;;;;;;;7391084;19;20161;-70
2022/08/14 08:05:13;;;;;;;0.40;0.40;;;;;;;;;;7390779;19;20128;-70
2022/08/14 08:07:40;;;;;;;0.60;0.60;;;;;;;;;;7377175;19;21142;-70
2022/08/14 08:10:30;;;;;;;0.40;0.40;;;;;;;;;;7391871;19;20121;-70
2022/08/14 08:13:17;;;;;;;0.30;0.30;;;;;;;;;;7389931;19;20243;-70
2022/08/14 08:15:45;;;;;;;0.68;0.68;;;;;;;;;;7390645;19;20143;-70
2022/08/14 08:18:12;;;;;;;0.40;0.40;;;;;;;;;;7391322;19;20133;-70
2022/08/14 08:20:41;;;;;;;0.40;0.40;;;;;;;;;;7391587;19;20128;-70
2022/08/14 08:23:08;;;;;;;0.30;0.30;;;;;;;;;;7390911;19;20160;-70
2022/08/14 08:25:36;;;;;;;0.30;0.30;;;;;;;;;;7388946;19;20125;-70
2022/08/14 08:28:16;;;;;;;0.30;0.30;;;;;;;;;;7392808;19;20129;-70
2022/08/14 08:30:47;;;;;;;0.35;0.35;;;;;;;;;;7390416;19;20223;-70
2022/08/14 08:33:15;;;;;;;0.40;0.40;;;;;;;;;;7389127;19;20157;-70
2022/08/14 08:35:41;;;;;;;2.03;0.68;;;;;;;;;;7392094;19;20154;-70
2022/08/14 08:38:09;;;;;;;0.75;0.60;;;;;;;;;;7384054;19;20589;-70
2022/08/14 08:40:39;;;;;;;0.38;0.38;;;;;;;;;;7388391;19;20166;-70
2022/08/14 08:43:07;;;;;;;0.63;0.63;;;;;;;;;;7385254;19;20519;-71
2022/08/14 08:45:34;;;;;;;0.40;0.40;;;;;;;;;;7384176;19;20141;-70
2022/08/14 08:48:00;;;;;;;0.30;0.30;;;;;;;;;;7385186;19;20125;-70
2022/08/14 08:50:32;;;;;;;0.40;0.40;;;;;;;;;;7390449;19;20134;-70
2022/08/14 08:53:03;;;;;;;0.85;0.85;;;;;;;;;;7387304;19;20250;-70
2022/08/14 08:55:39;;;;;;;0.40;0.40;;;;;;;;;;7388928;19;20109;-70
2022/08/14 08:58:08;;;;;;;0.50;0.50;;;;;;;;;;7388197;19;20135;-70
2022/08/14 09:00:35;;;;;;;0.40;0.40;;;;;;;;;;7388883;19;20569;-70
2022/08/14 09:03:05;;;;;;;0.47;0.47;;;;;;;;;;7387525;19;20656;-70
2022/08/14 09:05:31;;;;;;;0.73;0.73;;;;;;;;;;7389898;19;20192;-70
2022/08/14 09:08:18;;;;;;;0.40;0.40;;;;;;;;;;7384769;19;20156;-71
2022/08/14 09:10:44;;;;;;;0.38;0.38;;;;;;;;;;7382853;19;20124;-70
2022/08/14 09:13:11;;;;;;;0.40;0.40;;;;;;;;;;7387367;19;20170;-70
2022/08/14 09:15:42;;;;;;;0.40;0.40;;;;;;;;;;7385820;19;20125;-70
2022/08/14 09:18:08;;;;;;;0.30;0.30;;;;;;;;;;7385454;19;20595;-70
2022/08/14 09:20:36;;;;;;;0.60;0.60;;;;;;;;;;7387875;19;20125;-70
2022/08/14 09:23:04;;;;;;;0.77;0.77;;;;;;;;;;7387503;19;20188;-70
2022/08/14 09:25:29;;;;;;;0.63;0.63;;;;;;;;;;7387806;19;20223;-70
2022/08/14 09:27:54;;;;;;;1.00;0.82;;;;;;;;;;7387701;19;20128;-70
2022/08/14 09:30:20;;;;;;;0.45;0.45;;;;;;;;;;7387133;19;20121;-70
2022/08/14 09:33:01;;;;;;;0.52;0.52;;;;;;;;;;7387824;19;20152;-70
2022/08/14 09:35:34;;;;;;;0.43;0.43;;;;;;;;;;7389535;19;20139;-70
2022/08/14 09:38:06;;;;;;;0.30;0.30;;;;;;;;;;7389553;19;20610;-70
2022/08/14 09:40:47;;;;;;;0.40;0.40;;;;;;;;;;7388963;19;20124;-70
2022/08/14 09:43:31;;;;;;;0.30;0.30;;;;;;;;;;7379452;19;20161;-70
2022/08/14 09:45:57;;;;;;;0.30;0.30;;;;;;;;;;7373756;19;20602;-70
2022/08/14 09:48:24;;;;;;;0.40;0.40;;;;;;;;;;7377201;19;20128;-72
2022/08/14 09:50:54;;;;;;;1.02;0.98;;;;;;;;;;7380988;19;20498;-72
2022/08/14 09:53:35;;;;;;;0.40;0.40;;;;;;;;;;7376294;19;20153;-72
2022/08/14 09:56:01;;;;;;;0.40;0.40;;;;;;;;;;7371656;19;20125;-71
2022/08/14 09:58:38;;;;;;;0.40;0.40;;;;;;;;;;7378403;19;20644;-72
2022/08/14 10:01:13;;;;;;;0.30;0.30;;;;;;;;;;7388496;19;20124;-72
2022/08/14 10:03:51;;;;;;;0.50;0.50;;;;;;;;;;7386668;19;20187;-71
2022/08/14 10:06:24;;;;;;;0.52;0.52;;;;;;;;;;7387586;19;20139;-72
2022/08/14 10:08:51;;;;;;;0.65;0.65;;;;;;;;;;7390505;19;20188;-72
2022/08/14 10:11:18;;;;;;;0.80;0.80;;;;;;;;;;7388602;19;20147;-71
2022/08/14 10:13:45;;;;;;;0.95;0.70;;;;;;;;;;7386444;19;20196;-72
2022/08/14 10:16:10;;;;;;;2.50;0.60;;;;;;;;;;7387301;19;20127;-72
2022/08/14 10:18:36;;;;;;;0.40;0.40;;;;;;;;;;7382289;19;20125;-72
2022/08/14 10:21:03;;;;;;;0.52;0.52;;;;;;;;;;7387541;19;20657;-72
2022/08/14 10:23:41;;;;;;;0.40;0.40;;;;;;;;;;7388302;19;20153;-72
2022/08/14 10:26:07;;;;;;;0.30;0.30;;;;;;;;;;7381928;19;20543;-72
2022/08/14 10:28:44;;;;;;;0.32;0.32;;;;;;;;;;7388857;19;20162;-72
2022/08/14 10:31:22;;;;;;;0.40;0.40;;;;;;;;;;7381941;19;20183;-71
2022/08/14 10:34:06;;;;;;;0.35;0.35;;;;;;;;;;7371196;19;20572;-72
2022/08/14 10:36:36;;;;;;;0.82;0.82;;;;;;;;;;7379044;19;20136;-72
2022/08/14 10:39:14;;;;;;;0.43;0.43;;;;;;;;;;7377165;19;20144;-72
2022/08/14 10:41:41;;;;;;;0.90;0.50;;;;;;;;;;7382549;19;20117;-72
2022/08/14 10:44:13;;;;;;;0.60;0.60;;;;;;;;;;7396993;19;20139;-72
2022/08/14 10:46:51;;;;;;;0.60;0.57;;;;;;;;;;7396500;19;20130;-72
2022/08/14 10:49:48;;;;;;;0.40;0.40;;;;;;;;;;7393982;19;20137;-71
2022/08/14 10:52:33;;;;;;;0.43;0.43;;;;;;;;;;7391125;19;20498;-72
2022/08/14 10:55:30;;;;;;;2.35;0.70;;;;;;;;;;7391223;19;20148;-72
2022/08/14 10:57:56;;;;;;;0.47;0.47;;;;;;;;;;7390416;19;20709;-72
2022/08/14 11:00:27;;;;;;;0.50;0.50;;;;;;;;;;7387542;19;20121;-72
2022/08/14 11:03:16;;;;;;;0.40;0.40;;;;;;;;;;7388041;19;20685;-72
2022/08/14 11:05:42;;;;;;;0.50;0.50;;;;;;;;;;7368837;19;20129;-72
2022/08/14 11:08:09;;;;;;;0.45;0.45;;;;;;;;;;7388298;19;20256;-73
2022/08/14 11:10:43;;;;;;;0.30;0.30;;;;;;;;;;7376739;19;20148;-73
2022/08/14 11:13:09;;;;;;;0.40;0.40;;;;;;;;;;7389308;19;20172;-73
2022/08/14 11:15:35;;;;;;;0.50;0.50;;;;;;;;;;7389124;19;20156;-73
2022/08/14 11:18:01;;;;;;;0.40;0.40;;;;;;;;;;7371971;19;20505;-72
2022/08/14 11:20:29;;;;;;;0.60;0.60;;;;;;;;;;7382764;19;20538;-73
2022/08/14 11:22:56;;;;;;;0.52;0.52;;;;;;;;;;7377700;19;20216;-72
2022/08/14 11:25:24;;;;;;;0.50;0.50;;;;;;;;;;7370928;19;20120;-71
2022/08/14 11:27:54;;;;;;;0.50;0.50;;;;;;;;;;7375323;19;20152;-72
2022/08/14 11:30:22;;;;;;;0.93;0.93;;;;;;;;;;7381826;19;20164;-73
2022/08/14 11:32:49;;;;;;;1.58;1.20;;;;;;;;;;7382297;19;20177;-73
2022/08/14 11:35:22;;;;;;;0.65;0.65;;;;;;;;;;7382562;19;20505;-72
2022/08/14 11:37:50;;;;;;;0.73;0.73;;;;;;;;;;7385500;19;20212;-73
2022/08/14 11:40:16;;;;;;;1.08;1.08;;;;;;;;;;7390795;19;20334;-73
2022/08/14 11:42:46;;;;;;;0.43;0.43;;;;;;;;;;7392432;19;21036;-73
2022/08/14 11:45:11;;;;;;;0.52;0.50;;;;;;;;;;7392045;19;20149;-73
2022/08/14 11:47:37;;;;;;;1.25;1.15;;;;;;;;;;7394706;19;20456;-73
2022/08/14 11:50:18;;;;;;;0.52;0.52;;;;;;;;;;7391262;19;20526;-73
2022/08/14 11:52:44;;;;;;;0.93;0.90;;;;;;;;;;7390202;19;20153;-73
2022/08/14 11:55:12;;;;;;;0.70;0.70;;;;;;;;;;7382245;19;20180;-73
2022/08/14 11:57:38;;;;;;;1.65;1.33;;;;;;;;;;7375018;19;20532;-73
2022/08/14 12:00:08;;;;;;;0.60;0.60;;;;;;;;;;7380631;19;20685;-73
2022/08/14 12:02:33;;;;;;;0.50;0.50;;;;;;;;;;7375083;19;20623;-73
2022/08/14 12:04:59;;;;;;;0.98;0.75;;;;;;;;;;7380965;19;20154;-73
2022/08/14 12:07:24;;;;;;;0.50;0.50;;;;;;;;;;7390985;19;20125;-73
2022/08/14 12:09:54;;;;;;;1.58;0.90;;;;;;;;;;7394010;19;20117;-73
2022/08/14 12:12:22;;;;;;;0.77;0.68;;;;;;;;;;7391942;19;20503;-73
2022/08/14 12:14:47;;;;;;;0.60;0.60;;;;;;;;;;7381907;19;20647;-72
2022/08/14 12:17:13;;;;;;;0.55;0.55;;;;;;;;;;7378462;19;20138;-72
2022/08/14 12:19:54;;;;;;;0.65;0.65;;;;;;;;;;7390732;19;20125;-72
2022/08/14 12:22:38;;;;;;;0.50;0.50;;;;;;;;;;7371412;19;20184;-72
2022/08/14 12:25:06;;;;;;;0.60;0.60;;;;;;;;;;7380576;19;20125;-73
2022/08/14 12:27:42;;;;;;;0.60;0.60;;;;;;;;;;7383555;19;20186;-73
2022/08/14 12:30:09;;;;;;;0.40;0.40;;;;;;;;;;7385058;19;20525;-73
2022/08/14 12:32:42;;;;;;;0.60;0.60;;;;;;;;;;7385720;19;20172;-73
2022/08/14 12:35:08;;;;;;;0.50;0.50;;;;;;;;;;7384835;19;20152;-73
2022/08/14 12:37:35;;;;;;;0.40;0.40;;;;;;;;;;7390141;19;20172;-73
2022/08/14 12:40:11;;;;;;;0.45;0.45;;;;;;;;;;7390783;19;20152;-73
2022/08/14 12:45:12;;;;;;;0.32;0.32;;;;;;;;;;7386995;19;20195;-73
2022/08/14 12:47:41;;;;;;;0.60;0.60;;;;;;;;;;7373634;19;20226;-72
2022/08/14 12:50:10;;;;;;;0.75;0.75;;;;;;;;;;7370026;19;20144;-73
2022/08/14 12:52:39;;;;;;;0.55;0.55;;;;;;;;;;7371776;19;20145;-73
2022/08/14 12:55:07;;;;;;;0.50;0.50;;;;;;;;;;7356500;19;20142;-72
2022/08/14 12:57:40;;;;;;;0.45;0.45;;;;;;;;;;7369408;19;20673;-72
2022/08/14 13:00:11;;;;;;;1.00;0.90;;;;;;;;;;7369120;19;20493;-71
2022/08/14 13:02:38;;;;;;;0.47;0.47;;;;;;;;;;7359677;19;20542;-72
2022/08/14 13:05:04;;;;;;;0.40;0.40;;;;;;;;;;7357941;19;20148;-72
2022/08/14 13:07:29;;;;;;;0.40;0.40;;;;;;;;;;7357297;19;20117;-72
2022/08/14 13:09:55;;;;;;;0.45;0.45;;;;;;;;;;7353244;19;20144;-72
2022/08/14 13:12:28;;;;;;;0.63;0.63;;;;;;;;;;7361827;19;20974;-72
2022/08/14 13:14:56;;;;;;;0.50;0.50;;;;;;;;;;7366113;19;20591;-72
2022/08/14 13:17:23;;;;;;;0.45;0.45;;;;;;;;;;7369006;19;20117;-71
2022/08/14 13:19:48;;;;;;;0.40;0.40;;;;;;;;;;7364937;19;20128;-73
2022/08/14 13:22:16;;;;;;;0.50;0.50;;;;;;;;;;7356385;19;20174;-72
2022/08/14 13:24:41;;;;;;;0.40;0.40;;;;;;;;;;7361253;19;20520;-71
2022/08/14 13:27:07;;;;;;;0.80;0.80;;;;;;;;;;7377631;19;20144;-72
2022/08/14 13:29:40;;;;;;;0.50;0.50;;;;;;;;;;7385688;19;20125;-72
2022/08/14 13:32:08;;;;;;;0.40;0.40;;;;;;;;;;7382686;19;20537;-72
2022/08/14 13:34:33;;;;;;;0.65;0.65;;;;;;;;;;7383791;19;20144;-71
2022/08/14 13:36:58;;;;;;;0.57;0.57;;;;;;;;;;7387317;19;20491;-71
2022/08/14 13:39:25;;;;;;;0.77;0.77;;;;;;;;;;7383389;19;20127;-72
2022/08/14 13:41:50;;;;;;;0.43;0.43;;;;;;;;;;7383693;19;20172;-72
2022/08/14 13:44:17;;;;;;;0.40;0.40;;;;;;;;;;7387262;19;20121;-75
2022/08/14 13:46:43;;;;;;;0.45;0.45;;;;;;;;;;7386186;19;20113;-74
2022/08/14 13:49:10;;;;;;;0.50;0.50;;;;;;;;;;7388778;19;20610;-74
2022/08/14 13:51:39;;;;;;;0.50;0.50;;;;;;;;;;7386255;19;20167;-74
2022/08/14 13:54:05;;;;;;;0.40;0.40;;;;;;;;;;7381818;19;20157;-74
2022/08/14 13:56:38;;;;;;;0.60;0.60;;;;;;;;;;7385799;19;20156;-73
2022/08/14 13:59:05;;;;;;;0.30;0.30;;;;;;;;;;7384489;19;21154;-74
2022/08/14 14:01:33;;;;;;;0.40;0.40;;;;;;;;;;7384342;19;20481;-74
2022/08/14 14:03:59;;;;;;;0.60;0.60;;;;;;;;;;7385320;19;20162;-73
2022/08/14 14:06:25;;;;;;;0.40;0.40;;;;;;;;;;7384855;19;20133;-73
2022/08/14 14:08:53;;;;;;;0.30;0.30;;;;;;;;;;7373758;19;20196;-73
2022/08/14 14:11:22;;;;;;;0.50;0.50;;;;;;;;;;7355470;19;20176;-73
2022/08/14 14:13:49;;;;;;;0.45;0.40;;;;;;;;;;7365748;19;20191;-73
2022/08/14 14:16:18;;;;;;;0.50;0.50;;;;;;;;;;7372153;19;20125;-74
2022/08/14 14:18:50;;;;;;;1.02;0.40;;;;;;;;;;7372086;19;20124;-74
2022/08/14 14:21:20;;;;;;;0.65;0.65;;;;;;;;;;7382172;19;20614;-73
2022/08/14 14:23:46;;;;;;;0.50;0.50;;;;;;;;;;7382722;19;20167;-74
2022/08/14 14:26:16;;;;;;;0.68;0.68;;;;;;;;;;7386459;19;20137;-74
2022/08/14 14:28:43;;;;;;;0.70;0.70;;;;;;;;;;7378011;19;20117;-74
2022/08/14 14:31:10;;;;;;;0.77;0.77;;;;;;;;;;7384869;19;20188;-73
2022/08/14 14:33:41;;;;;;;0.30;0.30;;;;;;;;;;7382795;19;20172;-74
2022/08/14 14:36:07;;;;;;;0.40;0.40;;;;;;;;;;7381976;19;20146;-74
2022/08/14 14:38:39;;;;;;;0.50;0.50;;;;;;;;;;7382417;19;20125;-74
2022/08/14 14:41:05;;;;;;;0.52;0.52;;;;;;;;;;7385173;19;20459;-74
2022/08/14 14:43:31;;;;;;;0.50;0.50;;;;;;;;;;7379902;19;20151;-74
2022/08/14 14:45:56;;;;;;;0.73;0.73;;;;;;;;;;7384542;19;20125;-74
2022/08/14 14:48:22;;;;;;;0.40;0.40;;;;;;;;;;7383890;19;20121;-73
2022/08/14 14:50:51;;;;;;;0.50;0.50;;;;;;;;;;7384672;19;20132;-74
2022/08/14 14:53:18;;;;;;;0.40;0.40;;;;;;;;;;7384913;19;20634;-74
2022/08/14 14:55:44;;;;;;;0.35;0.35;;;;;;;;;;7380858;19;20150;-74
2022/08/14 14:58:10;;;;;;;0.30;0.30;;;;;;;;;;7382660;19;20128;-73
2022/08/14 15:00:35;;;;;;;0.77;0.77;;;;;;;;;;7385004;19;20145;-74
2022/08/14 15:03:01;;;;;;;1.67;0.82;;;;;;;;;;7381877;19;20164;-74
2022/08/14 15:05:27;;;;;;;0.73;0.68;;;;;;;;;;7382361;19;20123;-73
2022/08/14 15:07:52;;;;;;;0.40;0.40;;;;;;;;;;7377961;19;20595;-74
2022/08/14 15:10:19;;;;;;;0.40;0.40;;;;;;;;;;7382040;19;20595;-73
2022/08/14 15:12:45;;;;;;;0.57;0.57;;;;;;;;;;7382831;19;20519;-74
2022/08/14 15:15:11;;;;;;;0.60;0.60;;;;;;;;;;7382740;19;20614;-74
2022/08/14 15:17:40;;;;;;;0.55;0.55;;;;;;;;;;7378192;19;20130;-74
2022/08/14 15:20:13;;;;;;;0.43;0.43;;;;;;;;;;7380728;19;20126;-74
2022/08/14 15:22:39;;;;;;;0.65;0.65;;;;;;;;;;7377058;19;20588;-74
2022/08/14 15:25:08;;;;;;;0.43;0.43;;;;;;;;;;7380003;19;20156;-74
2022/08/14 15:27:33;;;;;;;0.43;0.43;;;;;;;;;;7365510;19;20125;-74
2022/08/14 15:29:59;;;;;;;0.80;0.63;;;;;;;;;;7375999;19;20124;-74
2022/08/14 15:32:24;;;;;;;0.73;0.73;;;;;;;;;;7389100;19;20144;-73
2022/08/14 15:34:50;;;;;;;0.60;0.60;;;;;;;;;;7387914;19;20162;-74
2022/08/14 15:37:16;;;;;;;0.60;0.60;;;;;;;;;;7383233;19;20133;-74
2022/08/14 15:39:41;;;;;;;0.55;0.55;;;;;;;;;;7381508;19;20140;-74
2022/08/14 15:42:08;;;;;;;0.45;0.45;;;;;;;;;;7376303;19;20642;-73
2022/08/14 15:44:34;;;;;;;0.50;0.50;;;;;;;;;;7381400;19;20436;-74
2022/08/14 15:46:59;;;;;;;10.23;1.25;;;;;;;;;;7391247;19;20109;-74
2022/08/14 15:49:28;;;;;;;0.40;0.40;;;;;;;;;;7388133;19;20125;-73
2022/08/14 15:51:56;;;;;;;0.82;0.82;;;;;;;;;;7384307;19;20141;-74
2022/08/14 15:54:22;;;;;;;0.70;0.70;;;;;;;;;;7385613;19;20140;-73
2022/08/14 15:56:55;;;;;;;0.30;0.30;;;;;;;;;;7388164;19;20503;-74
2022/08/14 15:59:20;;;;;;;0.50;0.50;;;;;;;;;;7381818;19;20129;-73
2022/08/14 16:01:46;;;;;;;0.63;0.50;;;;;;;;;;7379607;19;20196;-74
2022/08/14 16:04:11;;;;;;;0.40;0.40;;;;;;;;;;7367863;19;20155;-74
2022/08/14 16:06:36;;;;;;;0.40;0.40;;;;;;;;;;7370654;19;20149;-73
2022/08/14 16:09:02;;;;;;;1.17;0.60;;;;;;;;;;7377970;19;20149;-74
2022/08/14 16:11:28;;;;;;;0.55;0.55;;;;;;;;;;7381812;19;20141;-74
2022/08/14 16:13:53;;;;;;;0.40;0.40;;;;;;;;;;7386685;19;20132;-73
2022/08/14 16:16:20;;;;;;;0.50;0.50;;;;;;;;;;7375954;19;20128;-73
2022/08/14 16:18:47;;;;;;;0.40;0.40;;;;;;;;;;7366037;19;20490;-73
2022/08/14 16:21:14;;;;;;;0.65;0.65;;;;;;;;;;7381477;19;20129;-73
2022/08/14 16:23:43;;;;;;;0.45;0.45;;;;;;;;;;7380804;19;20164;-73
2022/08/14 16:26:28;;;;;;;0.43;0.43;;;;;;;;;;7383966;19;20152;-74
2022/08/14 16:29:03;;;;;;;0.55;0.47;;;;;;;;;;7383972;19;20159;-73
2022/08/14 16:31:28;;;;;;;1.35;1.25;;;;;;;;;;7386344;19;20498;-73
2022/08/14 16:33:54;;;;;;;0.40;0.40;;;;;;;;;;7377046;19;21918;-73
2022/08/14 16:36:25;;;;;;;0.40;0.40;;;;;;;;;;7372755;19;20236;-74
2022/08/14 16:38:56;;;;;;;0.50;0.50;;;;;;;;;;7358660;19;20159;-73
2022/08/14 16:41:27;;;;;;;0.40;0.40;;;;;;;;;;7378371;19;20204;-73
2022/08/14 16:44:05;;;;;;;0.60;0.60;;;;;;;;;;7371347;19;20164;-74
2022/08/14 16:46:37;;;;;;;0.43;0.43;;;;;;;;;;7371996;19;20129;-73
2022/08/14 16:49:07;;;;;;;1.67;0.70;;;;;;;;;;7381364;19;20479;-74
2022/08/14 16:51:33;;;;;;;0.85;0.85;;;;;;;;;;7377657;19;20543;-73
2022/08/14 16:54:00;;;;;;;0.93;0.77;;;;;;;;;;7375008;19;20128;-73
2022/08/14 16:56:28;;;;;;;0.35;0.35;;;;;;;;;;7383032;19;20134;-74
2022/08/14 16:59:11;;;;;;;0.90;0.90;;;;;;;;;;7368977;19;20492;-74
2022/08/14 17:01:39;;;;;;;0.65;0.65;;;;;;;;;;7371802;19;20572;-75
2022/08/14 17:04:11;;;;;;;0.52;0.52;;;;;;;;;;7375855;19;20642;-74
2022/08/14 17:06:42;;;;;;;0.30;0.30;;;;;;;;;;7377976;19;20132;-73
2022/08/14 17:09:25;;;;;;;0.30;0.30;;;;;;;;;;7383128;19;20137;-73
2022/08/14 17:11:54;;;;;;;0.45;0.45;;;;;;;;;;7386607;19;20227;-73
2022/08/14 17:14:19;;;;;;;0.55;0.40;;;;;;;;;;7381175;19;20185;-74
2022/08/14 17:16:45;;;;;;;0.50;0.50;;;;;;;;;;7378578;19;20117;-73
2022/08/14 17:19:13;;;;;;;0.40;0.40;;;;;;;;;;7382582;19;20164;-73
2022/08/14 17:21:38;;;;;;;0.40;0.40;;;;;;;;;;7384439;19;20148;-73
2022/08/14 17:24:11;;;;;;;0.40;0.40;;;;;;;;;;7379814;19;20196;-74
2022/08/14 17:26:51;;;;;;;0.40;0.40;;;;;;;;;;7381474;19;20552;-74
2022/08/14 17:29:23;;;;;;;0.47;0.47;;;;;;;;;;7362120;19;20129;-74
2022/08/14 17:31:59;;;;;;;0.75;0.75;;;;;;;;;;7381342;19;20536;-73
2022/08/14 17:34:25;;;;;;;0.40;0.40;;;;;;;;;;7381087;19;20117;-73
2022/08/14 17:36:52;;;;;;;0.40;0.40;;;;;;;;;;7380270;19;20149;-74
2022/08/14 17:39:19;;;;;;;0.40;0.40;;;;;;;;;;7382250;19;20153;-74
2022/08/14 17:41:59;;;;;;;0.40;0.40;;;;;;;;;;7377231;19;20609;-73
2022/08/14 17:44:27;;;;;;;0.47;0.47;;;;;;;;;;7379785;19;20160;-73
2022/08/14 17:47:04;;;;;;;0.32;0.32;;;;;;;;;;7379367;19;20582;-73
2022/08/14 17:49:43;;;;;;;0.40;0.40;;;;;;;;;;7375022;19;20139;-74
2022/08/14 17:52:20;;;;;;;0.40;0.40;;;;;;;;;;7381119;19;20603;-73
2022/08/14 17:54:48;;;;;;;0.60;0.60;;;;;;;;;;7380503;19;20116;-74
2022/08/14 17:57:23;;;;;;;0.57;0.57;;;;;;;;;;7378308;19;20121;-74
2022/08/14 17:59:50;;;;;;;0.40;0.40;;;;;;;;;;7381145;19;20614;-74
2022/08/14 18:02:17;;;;;;;0.50;0.50;;;;;;;;;;7361551;19;20623;-74
2022/08/14 18:04:44;;;;;;;0.40;0.40;;;;;;;;;;7358697;19;20125;-74
2022/08/14 18:07:14;;;;;;;0.40;0.40;;;;;;;;;;7355938;19;20140;-74
2022/08/14 18:09:45;;;;;;;0.50;0.50;;;;;;;;;;7364584;19;20160;-74
2022/08/14 18:12:11;;;;;;;1.38;0.75;;;;;;;;;;7372202;19;20167;-75
2022/08/14 18:14:38;;;;;;;0.30;0.30;;;;;;;;;;7371643;19;20117;-74
2022/08/14 18:17:07;;;;;;;0.40;0.40;;;;;;;;;;7381351;19;20220;-74
2022/08/14 18:19:36;;;;;;;0.30;0.30;;;;;;;;;;7379957;19;20133;-73
2022/08/14 18:22:06;;;;;;;0.40;0.40;;;;;;;;;;7364913;19;20213;-75
2022/08/14 18:24:32;;;;;;;0.30;0.30;;;;;;;;;;7376361;19;20583;-74
2022/08/14 18:27:03;;;;;;;0.30;0.30;;;;;;;;;;7377574;19;20132;-75
2022/08/14 18:29:29;;;;;;;0.85;0.85;;;;;;;;;;7386852;19;20124;-74
2022/08/14 18:31:55;;;;;;;0.70;0.70;;;;;;;;;;7383352;19;20494;-74
2022/08/14 18:34:21;;;;;;;0.40;0.40;;;;;;;;;;7378685;19;20148;-74
2022/08/14 18:36:50;;;;;;;0.40;0.40;;;;;;;;;;7382981;19;20147;-74
2022/08/14 18:39:29;;;;;;;0.40;0.40;;;;;;;;;;7379023;19;20587;-74
2022/08/14 18:42:10;;;;;;;0.68;0.68;;;;;;;;;;7382654;19;20148;-74
2022/08/14 18:44:53;;;;;;;0.40;0.40;;;;;;;;;;7387243;19;20128;-73
2022/08/14 18:47:22;;;;;;;0.52;0.52;;;;;;;;;;7380283;19;20155;-74
2022/08/14 18:49:56;;;;;;;0.30;0.30;;;;;;;;;;7379794;19;20148;-73
2022/08/14 18:52:39;;;;;;;0.75;0.75;;;;;;;;;;7384852;19;20158;-74
2022/08/14 18:55:19;;;;;;;0.40;0.40;;;;;;;;;;7384563;19;20606;-75
2022/08/14 18:57:53;;;;;;;0.63;0.63;;;;;;;;;;7380361;19;20125;-74
2022/08/14 19:00:38;;;;;;;0.40;0.40;;;;;;;;;;7385643;19;20133;-74
2022/08/14 19:03:08;;;;;;;0.60;0.60;;;;;;;;;;7385964;19;20471;-73